sensor_id;sensor_type;location;lat;lon;timestamp;P1;durP1;ratioP1;P2;durP2;ratioP2
8337;SDS011;4206;48.634;9.516;2023-02-01T00:01:12;4.07;;;2.70;;
8337;SDS011;4206;48.634;9.516;2023-02-01T00:03:37;2.30;;;1.83;;
8337;SDS011;4206;48.634;9.516;2023-02-01T00:06:03;1.90;;;1.80;;
8337;SDS011;4206;48.634;9.516;2023-02-01T00:08:29;2.20;;;1.70;;
8337;SDS011;4206;48.634;9.516;2023-02-01T00:11:03;4.37;;;1.73;;
8337;SDS011;4206;48.634;9.516;2023-02-01T00:13:31;4.00;;;2.10;;
8337;SDS011;4206;48.634;9.516;2023-02-01T00:16:06;6.40;;;1.93;;
8337;SDS011;4206;48.634;9.516;2023-02-01T00:18:37;5.27;;;2.00;;
8337;SDS011;4206;48.634;9.516;2023-02-01T00:21:03;4.40;;;1.63;;
8337;SDS011;4206;48.634;9.516;2023-02-01T00:23:31;2.97;;;1.80;;
8337;SDS011;4206;48.634;9.516;2023-02-01T00:26:01;3.43;;;2.00;;
8337;SDS011;4206;48.634;9.516;2023-02-01T00:28:28;4.10;;;2.10;;
8337;SDS011;4206;48.634;9.516;2023-02-01T00:30:56;2.53;;;1.83;;
8337;SDS011;4206;48.634;9.516;2023-02-01T00:33:22;4.93;;;1.80;;
8337;SDS011;4206;48.634;9.516;2023-02-01T00:35:48;3.00;;;1.60;;
8337;SDS011;4206;48.634;9.516;2023-02-01T00:38:14;2.50;;;1.73;;
8337;SDS011;4206;48.634;9.516;2023-02-01T00:40:39;3.63;;;1.70;;
8337;SDS011;4206;48.634;9.516;2023-02-01T00:43:05;3.00;;;1.60;;
8337;SDS011;4206;48.634;9.516;2023-02-01T00:45:31;2.10;;;1.90;;
8337;SDS011;4206;48.634;9.516;2023-02-01T00:47:57;2.77;;;1.47;;
8337;SDS011;4206;48.634;9.516;2023-02-01T00:50:23;2.87;;;1.60;;
8337;SDS011;4206;48.634;9.516;2023-02-01T00:52:49;1.83;;;1.40;;
8337;SDS011;4206;48.634;9.516;2023-02-01T00:55:14;1.30;;;1.20;;
8337;SDS011;4206;48.634;9.516;2023-02-01T00:57:40;3.00;;;1.47;;
8337;SDS011;4206;48.634;9.516;2023-02-01T01:00:06;6.20;;;1.50;;
8337;SDS011;4206;48.634;9.516;2023-02-01T01:02:32;2.70;;;1.83;;
8337;SDS011;4206;48.634;9.516;2023-02-01T01:04:57;1.87;;;1.40;;
8337;SDS011;4206;48.634;9.516;2023-02-01T01:07:23;1.43;;;1.17;;
8337;SDS011;4206;48.634;9.516;2023-02-01T01:09:49;2.07;;;1.37;;
8337;SDS011;4206;48.634;9.516;2023-02-01T01:12:14;1.60;;;1.23;;
8337;SDS011;4206;48.634;9.516;2023-02-01T01:14:40;1.70;;;1.10;;
8337;SDS011;4206;48.634;9.516;2023-02-01T01:17:06;1.53;;;1.30;;
8337;SDS011;4206;48.634;9.516;2023-02-01T01:19:31;0.90;;;0.90;;
8337;SDS011;4206;48.634;9.516;2023-02-01T01:21:57;1.73;;;1.20;;
8337;SDS011;4206;48.634;9.516;2023-02-01T01:24:23;1.53;;;1.03;;
8337;SDS011;4206;48.634;9.516;2023-02-01T01:26:48;0.80;;;0.80;;
8337;SDS011;4206;48.634;9.516;2023-02-01T01:29:14;1.40;;;0.77;;
8337;SDS011;4206;48.634;9.516;2023-02-01T01:31:40;2.17;;;1.40;;
8337;SDS011;4206;48.634;9.516;2023-02-01T01:34:05;1.77;;;1.27;;
8337;SDS011;4206;48.634;9.516;2023-02-01T01:36:31;1.23;;;0.90;;
8337;SDS011;4206;48.634;9.516;2023-02-01T01:38:56;1.33;;;0.83;;
8337;SDS011;4206;48.634;9.516;2023-02-01T01:41:24;1.70;;;1.20;;
8337;SDS011;4206;48.634;9.516;2023-02-01T01:43:53;2.80;;;1.00;;
8337;SDS011;4206;48.634;9.516;2023-02-01T01:46:19;1.70;;;1.10;;
8337;SDS011;4206;48.634;9.516;2023-02-01T01:48:50;1.30;;;0.83;;
8337;SDS011;4206;48.634;9.516;2023-02-01T01:51:19;1.40;;;0.90;;
8337;SDS011;4206;48.634;9.516;2023-02-01T01:53:50;1.27;;;0.80;;
8337;SDS011;4206;48.634;9.516;2023-02-01T01:56:21;1.20;;;0.97;;
8337;SDS011;4206;48.634;9.516;2023-02-01T01:58:47;2.33;;;1.30;;
8337;SDS011;4206;48.634;9.516;2023-02-01T02:01:13;0.80;;;0.73;;
8337;SDS011;4206;48.634;9.516;2023-02-01T02:03:40;0.83;;;0.70;;
8337;SDS011;4206;48.634;9.516;2023-02-01T02:06:11;1.30;;;0.90;;
8337;SDS011;4206;48.634;9.516;2023-02-01T02:08:46;1.17;;;1.00;;
8337;SDS011;4206;48.634;9.516;2023-02-01T02:11:12;1.93;;;1.00;;
8337;SDS011;4206;48.634;9.516;2023-02-01T02:13:42;2.77;;;1.00;;
8337;SDS011;4206;48.634;9.516;2023-02-01T02:16:16;1.40;;;1.30;;
8337;SDS011;4206;48.634;9.516;2023-02-01T02:27:22;1.10;;;0.90;;
8337;SDS011;4206;48.634;9.516;2023-02-01T02:32:40;1.13;;;1.00;;
8337;SDS011;4206;48.634;9.516;2023-02-01T02:35:17;1.03;;;0.87;;
8337;SDS011;4206;48.634;9.516;2023-02-01T02:37:58;1.20;;;1.10;;
8337;SDS011;4206;48.634;9.516;2023-02-01T02:40:41;1.00;;;0.73;;
8337;SDS011;4206;48.634;9.516;2023-02-01T02:43:19;1.30;;;1.00;;
8337;SDS011;4206;48.634;9.516;2023-02-01T02:46:05;1.87;;;0.90;;
8337;SDS011;4206;48.634;9.516;2023-02-01T02:49:01;2.60;;;1.10;;
8337;SDS011;4206;48.634;9.516;2023-02-01T02:54:30;2.20;;;1.00;;
8337;SDS011;4206;48.634;9.516;2023-02-01T02:57:18;1.40;;;1.20;;
8337;SDS011;4206;48.634;9.516;2023-02-01T03:00:11;3.33;;;1.20;;
8337;SDS011;4206;48.634;9.516;2023-02-01T03:02:55;1.67;;;0.93;;
8337;SDS011;4206;48.634;9.516;2023-02-01T03:05:37;1.17;;;1.00;;
8337;SDS011;4206;48.634;9.516;2023-02-01T03:10:45;2.50;;;1.20;;
8337;SDS011;4206;48.634;9.516;2023-02-01T03:18:17;1.10;;;0.90;;
8337;SDS011;4206;48.634;9.516;2023-02-01T03:20:47;1.13;;;0.97;;
8337;SDS011;4206;48.634;9.516;2023-02-01T03:23:16;2.50;;;1.30;;
8337;SDS011;4206;48.634;9.516;2023-02-01T03:25:45;0.93;;;0.83;;
8337;SDS011;4206;48.634;9.516;2023-02-01T03:28:15;1.27;;;0.80;;
8337;SDS011;4206;48.634;9.516;2023-02-01T03:30:44;1.10;;;1.00;;
8337;SDS011;4206;48.634;9.516;2023-02-01T03:33:13;1.40;;;0.90;;
8337;SDS011;4206;48.634;9.516;2023-02-01T03:41:20;1.57;;;1.33;;
8337;SDS011;4206;48.634;9.516;2023-02-01T03:46:49;1.03;;;1.00;;
8337;SDS011;4206;48.634;9.516;2023-02-01T03:49:27;2.10;;;0.90;;
8337;SDS011;4206;48.634;9.516;2023-02-01T03:51:58;2.87;;;1.03;;
8337;SDS011;4206;48.634;9.516;2023-02-01T03:54:24;1.10;;;1.00;;
8337;SDS011;4206;48.634;9.516;2023-02-01T03:56:52;1.90;;;1.13;;
8337;SDS011;4206;48.634;9.516;2023-02-01T03:59:20;1.47;;;1.20;;
8337;SDS011;4206;48.634;9.516;2023-02-01T04:01:45;1.13;;;1.03;;
8337;SDS011;4206;48.634;9.516;2023-02-01T04:04:11;1.83;;;1.70;;
8337;SDS011;4206;48.634;9.516;2023-02-01T04:06:44;1.27;;;1.07;;
8337;SDS011;4206;48.634;9.516;2023-02-01T04:09:11;1.20;;;1.10;;
8337;SDS011;4206;48.634;9.516;2023-02-01T04:11:36;2.33;;;1.27;;
8337;SDS011;4206;48.634;9.516;2023-02-01T04:14:02;1.07;;;0.93;;
8337;SDS011;4206;48.634;9.516;2023-02-01T04:16:29;1.50;;;0.83;;
8337;SDS011;4206;48.634;9.516;2023-02-01T04:18:56;2.10;;;1.20;;
8337;SDS011;4206;48.634;9.516;2023-02-01T04:21:22;1.70;;;1.30;;
8337;SDS011;4206;48.634;9.516;2023-02-01T04:23:48;1.40;;;1.30;;
8337;SDS011;4206;48.634;9.516;2023-02-01T04:26:13;1.17;;;0.97;;
8337;SDS011;4206;48.634;9.516;2023-02-01T04:28:41;4.40;;;0.93;;
8337;SDS011;4206;48.634;9.516;2023-02-01T04:31:07;1.73;;;0.90;;
8337;SDS011;4206;48.634;9.516;2023-02-01T04:33:32;2.17;;;1.00;;
8337;SDS011;4206;48.634;9.516;2023-02-01T04:35:58;1.50;;;1.17;;
8337;SDS011;4206;48.634;9.516;2023-02-01T04:38:24;2.00;;;1.60;;
8337;SDS011;4206;48.634;9.516;2023-02-01T04:40:49;1.90;;;1.20;;
8337;SDS011;4206;48.634;9.516;2023-02-01T04:43:16;1.20;;;1.10;;
8337;SDS011;4206;48.634;9.516;2023-02-01T04:45:46;1.57;;;0.77;;
8337;SDS011;4206;48.634;9.516;2023-02-01T04:48:12;0.80;;;0.80;;
8337;SDS011;4206;48.634;9.516;2023-02-01T04:50:38;0.73;;;0.73;;
8337;SDS011;4206;48.634;9.516;2023-02-01T04:53:03;2.20;;;0.80;;
8337;SDS011;4206;48.634;9.516;2023-02-01T04:55:29;1.80;;;0.60;;
8337;SDS011;4206;48.634;9.516;2023-02-01T04:57:55;1.00;;;0.90;;
8337;SDS011;4206;48.634;9.516;2023-02-01T05:00:21;1.07;;;0.77;;
8337;SDS011;4206;48.634;9.516;2023-02-01T05:02:47;1.73;;;0.80;;
8337;SDS011;4206;48.634;9.516;2023-02-01T05:05:13;1.10;;;1.00;;
8337;SDS011;4206;48.634;9.516;2023-02-01T05:07:38;1.57;;;0.60;;
8337;SDS011;4206;48.634;9.516;2023-02-01T05:10:04;1.27;;;0.80;;
8337;SDS011;4206;48.634;9.516;2023-02-01T05:12:30;1.20;;;0.70;;
8337;SDS011;4206;48.634;9.516;2023-02-01T05:15:13;1.30;;;0.80;;
8337;SDS011;4206;48.634;9.516;2023-02-01T05:17:39;0.90;;;0.73;;
8337;SDS011;4206;48.634;9.516;2023-02-01T05:20:05;1.33;;;1.13;;
8337;SDS011;4206;48.634;9.516;2023-02-01T05:22:32;1.47;;;1.03;;
8337;SDS011;4206;48.634;9.516;2023-02-01T05:24:58;1.20;;;1.00;;
8337;SDS011;4206;48.634;9.516;2023-02-01T05:27:24;1.30;;;1.00;;
8337;SDS011;4206;48.634;9.516;2023-02-01T05:29:49;1.23;;;0.90;;
8337;SDS011;4206;48.634;9.516;2023-02-01T05:32:15;1.80;;;1.00;;
8337;SDS011;4206;48.634;9.516;2023-02-01T05:34:41;2.50;;;0.97;;
8337;SDS011;4206;48.634;9.516;2023-02-01T05:37:06;1.17;;;0.70;;
8337;SDS011;4206;48.634;9.516;2023-02-01T05:39:32;0.90;;;0.80;;
8337;SDS011;4206;48.634;9.516;2023-02-01T05:41:58;1.93;;;0.87;;
8337;SDS011;4206;48.634;9.516;2023-02-01T05:44:24;3.50;;;0.90;;
8337;SDS011;4206;48.634;9.516;2023-02-01T05:46:49;1.33;;;0.90;;
8337;SDS011;4206;48.634;9.516;2023-02-01T05:49:17;1.37;;;0.90;;
8337;SDS011;4206;48.634;9.516;2023-02-01T05:51:42;0.97;;;0.90;;
8337;SDS011;4206;48.634;9.516;2023-02-01T05:54:08;1.10;;;0.90;;
8337;SDS011;4206;48.634;9.516;2023-02-01T05:56:34;0.97;;;0.80;;
8337;SDS011;4206;48.634;9.516;2023-02-01T05:59:00;0.70;;;0.60;;
8337;SDS011;4206;48.634;9.516;2023-02-01T06:01:26;0.80;;;0.70;;
8337;SDS011;4206;48.634;9.516;2023-02-01T06:03:52;3.10;;;1.00;;
8337;SDS011;4206;48.634;9.516;2023-02-01T06:06:17;1.10;;;0.70;;
8337;SDS011;4206;48.634;9.516;2023-02-01T06:08:44;0.90;;;0.80;;
8337;SDS011;4206;48.634;9.516;2023-02-01T06:11:10;1.60;;;0.70;;
8337;SDS011;4206;48.634;9.516;2023-02-01T06:13:36;1.00;;;0.60;;
8337;SDS011;4206;48.634;9.516;2023-02-01T06:16:03;1.10;;;1.00;;
8337;SDS011;4206;48.634;9.516;2023-02-01T06:18:31;1.00;;;0.80;;
8337;SDS011;4206;48.634;9.516;2023-02-01T06:20:58;1.40;;;0.90;;
8337;SDS011;4206;48.634;9.516;2023-02-01T06:23:25;1.00;;;0.70;;
8337;SDS011;4206;48.634;9.516;2023-02-01T06:25:52;1.40;;;1.10;;
8337;SDS011;4206;48.634;9.516;2023-02-01T06:28:18;2.73;;;0.83;;
8337;SDS011;4206;48.634;9.516;2023-02-01T06:30:44;0.87;;;0.60;;
8337;SDS011;4206;48.634;9.516;2023-02-01T06:33:11;3.33;;;0.80;;
8337;SDS011;4206;48.634;9.516;2023-02-01T06:35:40;1.00;;;0.90;;
8337;SDS011;4206;48.634;9.516;2023-02-01T06:38:07;1.13;;;0.80;;
8337;SDS011;4206;48.634;9.516;2023-02-01T06:40:32;1.97;;;0.90;;
8337;SDS011;4206;48.634;9.516;2023-02-01T06:42:58;6.40;;;1.40;;
8337;SDS011;4206;48.634;9.516;2023-02-01T06:45:24;1.30;;;1.10;;
8337;SDS011;4206;48.634;9.516;2023-02-01T06:47:49;1.63;;;1.17;;
8337;SDS011;4206;48.634;9.516;2023-02-01T06:50:15;1.80;;;1.30;;
8337;SDS011;4206;48.634;9.516;2023-02-01T06:52:41;1.13;;;1.03;;
8337;SDS011;4206;48.634;9.516;2023-02-01T06:55:07;0.73;;;0.60;;
8337;SDS011;4206;48.634;9.516;2023-02-01T06:57:33;1.40;;;1.13;;
8337;SDS011;4206;48.634;9.516;2023-02-01T07:00:00;1.20;;;1.10;;
8337;SDS011;4206;48.634;9.516;2023-02-01T07:02:27;2.10;;;1.53;;
8337;SDS011;4206;48.634;9.516;2023-02-01T07:04:53;1.73;;;0.93;;
8337;SDS011;4206;48.634;9.516;2023-02-01T07:07:18;2.23;;;1.00;;
8337;SDS011;4206;48.634;9.516;2023-02-01T07:09:45;0.80;;;0.60;;
8337;SDS011;4206;48.634;9.516;2023-02-01T07:12:11;0.60;;;0.60;;
8337;SDS011;4206;48.634;9.516;2023-02-01T07:14:36;1.97;;;1.00;;
8337;SDS011;4206;48.634;9.516;2023-02-01T07:17:02;1.87;;;1.00;;
8337;SDS011;4206;48.634;9.516;2023-02-01T07:19:28;2.33;;;0.80;;
8337;SDS011;4206;48.634;9.516;2023-02-01T07:21:54;1.10;;;0.70;;
8337;SDS011;4206;48.634;9.516;2023-02-01T07:24:19;4.37;;;1.37;;
8337;SDS011;4206;48.634;9.516;2023-02-01T07:26:45;2.00;;;1.10;;
8337;SDS011;4206;48.634;9.516;2023-02-01T07:29:12;1.87;;;0.97;;
8337;SDS011;4206;48.634;9.516;2023-02-01T07:31:38;2.33;;;1.50;;
8337;SDS011;4206;48.634;9.516;2023-02-01T07:34:04;2.37;;;1.47;;
8337;SDS011;4206;48.634;9.516;2023-02-01T07:36:29;1.50;;;0.90;;
8337;SDS011;4206;48.634;9.516;2023-02-01T07:38:55;2.23;;;1.50;;
8337;SDS011;4206;48.634;9.516;2023-02-01T07:41:22;2.00;;;1.20;;
8337;SDS011;4206;48.634;9.516;2023-02-01T07:43:47;3.27;;;1.30;;
8337;SDS011;4206;48.634;9.516;2023-02-01T07:46:15;2.87;;;0.83;;
8337;SDS011;4206;48.634;9.516;2023-02-01T07:48:41;1.83;;;1.33;;
8337;SDS011;4206;48.634;9.516;2023-02-01T07:51:08;2.20;;;1.13;;
8337;SDS011;4206;48.634;9.516;2023-02-01T07:53:36;2.70;;;1.20;;
8337;SDS011;4206;48.634;9.516;2023-02-01T07:56:02;2.70;;;1.00;;
8337;SDS011;4206;48.634;9.516;2023-02-01T07:58:28;1.80;;;0.87;;
8337;SDS011;4206;48.634;9.516;2023-02-01T08:00:54;2.73;;;1.00;;
8337;SDS011;4206;48.634;9.516;2023-02-01T08:03:36;1.37;;;1.27;;
8337;SDS011;4206;48.634;9.516;2023-02-01T08:06:02;1.60;;;1.30;;
8337;SDS011;4206;48.634;9.516;2023-02-01T08:08:27;1.73;;;1.37;;
8337;SDS011;4206;48.634;9.516;2023-02-01T08:10:57;3.00;;;0.90;;
8337;SDS011;4206;48.634;9.516;2023-02-01T08:13:23;2.90;;;1.50;;
8337;SDS011;4206;48.634;9.516;2023-02-01T08:15:49;2.37;;;1.13;;
8337;SDS011;4206;48.634;9.516;2023-02-01T08:18:14;1.03;;;0.93;;
8337;SDS011;4206;48.634;9.516;2023-02-01T08:20:42;1.37;;;1.10;;
8337;SDS011;4206;48.634;9.516;2023-02-01T08:23:10;1.33;;;1.03;;
8337;SDS011;4206;48.634;9.516;2023-02-01T08:25:36;2.70;;;1.17;;
8337;SDS011;4206;48.634;9.516;2023-02-01T08:28:02;8.50;;;1.00;;
8337;SDS011;4206;48.634;9.516;2023-02-01T08:30:29;0.90;;;0.70;;
8337;SDS011;4206;48.634;9.516;2023-02-01T08:32:54;4.40;;;1.00;;
8337;SDS011;4206;48.634;9.516;2023-02-01T08:35:20;2.50;;;1.10;;
8337;SDS011;4206;48.634;9.516;2023-02-01T08:37:46;2.10;;;1.03;;
8337;SDS011;4206;48.634;9.516;2023-02-01T08:40:11;4.70;;;1.20;;
8337;SDS011;4206;48.634;9.516;2023-02-01T08:42:38;3.77;;;1.13;;
8337;SDS011;4206;48.634;9.516;2023-02-01T08:45:22;1.63;;;1.30;;
8337;SDS011;4206;48.634;9.516;2023-02-01T08:47:51;2.50;;;1.77;;
8337;SDS011;4206;48.634;9.516;2023-02-01T08:50:17;2.20;;;1.40;;
8337;SDS011;4206;48.634;9.516;2023-02-01T08:52:44;3.37;;;2.00;;
8337;SDS011;4206;48.634;9.516;2023-02-01T08:55:11;9.87;;;2.50;;
8337;SDS011;4206;48.634;9.516;2023-02-01T08:57:37;3.63;;;1.90;;
8337;SDS011;4206;48.634;9.516;2023-02-01T09:00:05;4.70;;;1.60;;
8337;SDS011;4206;48.634;9.516;2023-02-01T09:02:34;3.13;;;1.40;;
8337;SDS011;4206;48.634;9.516;2023-02-01T09:05:00;3.90;;;1.50;;
8337;SDS011;4206;48.634;9.516;2023-02-01T09:07:26;1.93;;;1.13;;
8337;SDS011;4206;48.634;9.516;2023-02-01T09:09:52;5.17;;;1.90;;
8337;SDS011;4206;48.634;9.516;2023-02-01T09:12:19;7.60;;;1.87;;
8337;SDS011;4206;48.634;9.516;2023-02-01T09:14:45;5.07;;;2.03;;
8337;SDS011;4206;48.634;9.516;2023-02-01T09:17:11;3.50;;;2.27;;
8337;SDS011;4206;48.634;9.516;2023-02-01T09:19:38;4.73;;;2.17;;
8337;SDS011;4206;48.634;9.516;2023-02-01T09:22:04;2.90;;;1.30;;
8337;SDS011;4206;48.634;9.516;2023-02-01T09:24:30;2.50;;;1.43;;
8337;SDS011;4206;48.634;9.516;2023-02-01T09:26:55;7.43;;;2.67;;
8337;SDS011;4206;48.634;9.516;2023-02-01T09:29:21;3.53;;;1.70;;
8337;SDS011;4206;48.634;9.516;2023-02-01T09:31:46;2.20;;;1.50;;
8337;SDS011;4206;48.634;9.516;2023-02-01T09:34:12;4.40;;;2.10;;
8337;SDS011;4206;48.634;9.516;2023-02-01T09:36:38;7.83;;;3.00;;
8337;SDS011;4206;48.634;9.516;2023-02-01T09:39:03;6.13;;;1.80;;
8337;SDS011;4206;48.634;9.516;2023-02-01T09:46:44;3.47;;;1.57;;
8337;SDS011;4206;48.634;9.516;2023-02-01T09:49:12;4.97;;;1.87;;
8337;SDS011;4206;48.634;9.516;2023-02-01T09:51:44;2.03;;;1.20;;
8337;SDS011;4206;48.634;9.516;2023-02-01T09:54:14;4.70;;;1.80;;
8337;SDS011;4206;48.634;9.516;2023-02-01T09:56:47;4.23;;;1.43;;
8337;SDS011;4206;48.634;9.516;2023-02-01T10:01:49;10.50;;;3.83;;
8337;SDS011;4206;48.634;9.516;2023-02-01T10:04:15;6.85;;;3.53;;
8337;SDS011;4206;48.634;9.516;2023-02-01T10:09:32;9.30;;;2.80;;
8337;SDS011;4206;48.634;9.516;2023-02-01T10:14:52;9.70;;;4.73;;
8337;SDS011;4206;48.634;9.516;2023-02-01T10:17:38;5.73;;;2.43;;
8337;SDS011;4206;48.634;9.516;2023-02-01T10:27:34;5.83;;;1.60;;
8337;SDS011;4206;48.634;9.516;2023-02-01T10:30:05;6.03;;;2.60;;
8337;SDS011;4206;48.634;9.516;2023-02-01T10:32:45;8.93;;;1.60;;
8337;SDS011;4206;48.634;9.516;2023-02-01T10:35:17;6.93;;;1.93;;
8337;SDS011;4206;48.634;9.516;2023-02-01T10:37:48;5.73;;;1.27;;
8337;SDS011;4206;48.634;9.516;2023-02-01T10:40:18;4.70;;;1.63;;
8337;SDS011;4206;48.634;9.516;2023-02-01T10:42:48;7.23;;;1.60;;
8337;SDS011;4206;48.634;9.516;2023-02-01T10:45:17;5.00;;;1.60;;
8337;SDS011;4206;48.634;9.516;2023-02-01T10:47:45;6.47;;;1.30;;
8337;SDS011;4206;48.634;9.516;2023-02-01T10:50:16;3.00;;;1.50;;
8337;SDS011;4206;48.634;9.516;2023-02-01T10:52:55;5.83;;;1.67;;
8337;SDS011;4206;48.634;9.516;2023-02-01T10:57:56;8.00;;;1.70;;
8337;SDS011;4206;48.634;9.516;2023-02-01T11:00:23;2.43;;;1.37;;
8337;SDS011;4206;48.634;9.516;2023-02-01T11:02:49;7.17;;;2.53;;
8337;SDS011;4206;48.634;9.516;2023-02-01T11:05:16;10.97;;;1.63;;
8337;SDS011;4206;48.634;9.516;2023-02-01T11:07:48;4.03;;;1.30;;
8337;SDS011;4206;48.634;9.516;2023-02-01T11:13:03;3.73;;;1.10;;
8337;SDS011;4206;48.634;9.516;2023-02-01T11:15:29;6.20;;;1.50;;
8337;SDS011;4206;48.634;9.516;2023-02-01T11:17:55;7.13;;;2.00;;
8337;SDS011;4206;48.634;9.516;2023-02-01T11:23:02;6.83;;;1.40;;
8337;SDS011;4206;48.634;9.516;2023-02-01T11:25:28;6.23;;;1.80;;
8337;SDS011;4206;48.634;9.516;2023-02-01T11:27:56;3.07;;;1.27;;
8337;SDS011;4206;48.634;9.516;2023-02-01T11:30:27;8.90;;;1.73;;
8337;SDS011;4206;48.634;9.516;2023-02-01T11:32:58;8.00;;;2.00;;
8337;SDS011;4206;48.634;9.516;2023-02-01T11:35:24;9.53;;;1.87;;
8337;SDS011;4206;48.634;9.516;2023-02-01T11:37:54;9.57;;;2.00;;
8337;SDS011;4206;48.634;9.516;2023-02-01T11:40:28;5.10;;;1.50;;
8337;SDS011;4206;48.634;9.516;2023-02-01T11:43:00;5.70;;;1.70;;
8337;SDS011;4206;48.634;9.516;2023-02-01T11:45:54;6.10;;;1.70;;
8337;SDS011;4206;48.634;9.516;2023-02-01T11:48:20;7.63;;;1.67;;
8337;SDS011;4206;48.634;9.516;2023-02-01T12:01:58;8.57;;;1.73;;
8337;SDS011;4206;48.634;9.516;2023-02-01T12:07:30;7.67;;;1.60;;
8337;SDS011;4206;48.634;9.516;2023-02-01T12:15:27;10.43;;;1.60;;
8337;SDS011;4206;48.634;9.516;2023-02-01T12:18:23;9.27;;;1.70;;
8337;SDS011;4206;48.634;9.516;2023-02-01T12:26:45;8.53;;;1.93;;
8337;SDS011;4206;48.634;9.516;2023-02-01T12:43:12;4.20;;;1.40;;
8337;SDS011;4206;48.634;9.516;2023-02-01T12:45:43;7.77;;;2.00;;
8337;SDS011;4206;48.634;9.516;2023-02-01T12:51:01;9.73;;;2.90;;
8337;SDS011;4206;48.634;9.516;2023-02-01T12:56:09;11.07;;;2.13;;
8337;SDS011;4206;48.634;9.516;2023-02-01T12:58:45;9.87;;;2.27;;
8337;SDS011;4206;48.634;9.516;2023-02-01T13:01:17;15.33;;;4.03;;
8337;SDS011;4206;48.634;9.516;2023-02-01T13:06:50;11.40;;;2.70;;
8337;SDS011;4206;48.634;9.516;2023-02-01T13:12:20;9.27;;;3.20;;
8337;SDS011;4206;48.634;9.516;2023-02-01T13:14:54;6.77;;;2.63;;
8337;SDS011;4206;48.634;9.516;2023-02-01T13:17:23;7.43;;;2.53;;
8337;SDS011;4206;48.634;9.516;2023-02-01T13:22:32;11.13;;;3.33;;
8337;SDS011;4206;48.634;9.516;2023-02-01T13:25:11;6.70;;;2.10;;
8337;SDS011;4206;48.634;9.516;2023-02-01T13:27:39;11.00;;;4.00;;
8337;SDS011;4206;48.634;9.516;2023-02-01T13:43:53;11.43;;;3.43;;
8337;SDS011;4206;48.634;9.516;2023-02-01T13:46:23;14.47;;;4.27;;
8337;SDS011;4206;48.634;9.516;2023-02-01T13:48:50;14.33;;;4.07;;
8337;SDS011;4206;48.634;9.516;2023-02-01T13:54:22;13.93;;;4.40;;
8337;SDS011;4206;48.634;9.516;2023-02-01T13:56:49;12.90;;;3.00;;
8337;SDS011;4206;48.634;9.516;2023-02-01T14:05:09;15.63;;;4.83;;
8337;SDS011;4206;48.634;9.516;2023-02-01T14:07:35;17.70;;;3.90;;
8337;SDS011;4206;48.634;9.516;2023-02-01T14:10:45;12.07;;;2.90;;
8337;SDS011;4206;48.634;9.516;2023-02-01T14:13:03;13.20;;;3.50;;
8337;SDS011;4206;48.634;9.516;2023-02-01T14:15:37;13.70;;;4.07;;
8337;SDS011;4206;48.634;9.516;2023-02-01T14:18:05;9.90;;;2.80;;
8337;SDS011;4206;48.634;9.516;2023-02-01T14:42:18;16.57;;;4.80;;
8337;SDS011;4206;48.634;9.516;2023-02-01T14:44:47;14.07;;;4.50;;
8337;SDS011;4206;48.634;9.516;2023-02-01T14:47:26;8.40;;;3.03;;
8337;SDS011;4206;48.634;9.516;2023-02-01T14:49:55;12.97;;;4.20;;
8337;SDS011;4206;48.634;9.516;2023-02-01T14:55:11;13.83;;;3.10;;
8337;SDS011;4206;48.634;9.516;2023-02-01T14:57:41;14.97;;;3.70;;
8337;SDS011;4206;48.634;9.516;2023-02-01T15:02:44;27.73;;;5.63;;
8337;SDS011;4206;48.634;9.516;2023-02-01T15:07:57;13.77;;;3.00;;
8337;SDS011;4206;48.634;9.516;2023-02-01T15:10:28;9.17;;;2.00;;
8337;SDS011;4206;48.634;9.516;2023-02-01T15:12:57;10.27;;;2.80;;
8337;SDS011;4206;48.634;9.516;2023-02-01T15:15:23;8.33;;;2.27;;
8337;SDS011;4206;48.634;9.516;2023-02-01T15:20:18;7.00;;;3.00;;
8337;SDS011;4206;48.634;9.516;2023-02-01T15:22:55;5.27;;;2.03;;
8337;SDS011;4206;48.634;9.516;2023-02-01T15:25:25;12.60;;;3.60;;
8337;SDS011;4206;48.634;9.516;2023-02-01T15:27:54;10.23;;;1.83;;
8337;SDS011;4206;48.634;9.516;2023-02-01T15:30:22;8.67;;;2.60;;
8337;SDS011;4206;48.634;9.516;2023-02-01T15:32:50;9.50;;;2.10;;
8337;SDS011;4206;48.634;9.516;2023-02-01T15:40:57;11.87;;;4.27;;
8337;SDS011;4206;48.634;9.516;2023-02-01T15:43:27;9.63;;;2.30;;
8337;SDS011;4206;48.634;9.516;2023-02-01T15:45:56;9.33;;;2.40;;
8337;SDS011;4206;48.634;9.516;2023-02-01T15:48:24;6.97;;;2.20;;
8337;SDS011;4206;48.634;9.516;2023-02-01T15:50:52;6.63;;;1.67;;
8337;SDS011;4206;48.634;9.516;2023-02-01T15:53:21;14.53;;;1.93;;
8337;SDS011;4206;48.634;9.516;2023-02-01T15:55:51;10.13;;;2.30;;
8337;SDS011;4206;48.634;9.516;2023-02-01T15:58:21;8.97;;;1.90;;
8337;SDS011;4206;48.634;9.516;2023-02-01T16:06:04;11.47;;;2.97;;
8337;SDS011;4206;48.634;9.516;2023-02-01T16:08:32;7.70;;;1.60;;
8337;SDS011;4206;48.634;9.516;2023-02-01T16:11:01;14.13;;;2.47;;
8337;SDS011;4206;48.634;9.516;2023-02-01T16:13:40;9.07;;;1.50;;
8337;SDS011;4206;48.634;9.516;2023-02-01T16:16:07;11.53;;;2.00;;
8337;SDS011;4206;48.634;9.516;2023-02-01T16:18:38;9.67;;;2.47;;
8337;SDS011;4206;48.634;9.516;2023-02-01T16:21:05;12.73;;;2.90;;
8337;SDS011;4206;48.634;9.516;2023-02-01T16:23:32;9.97;;;2.00;;
8337;SDS011;4206;48.634;9.516;2023-02-01T16:25:58;9.23;;;2.23;;
8337;SDS011;4206;48.634;9.516;2023-02-01T16:28:24;8.93;;;2.37;;
8337;SDS011;4206;48.634;9.516;2023-02-01T16:30:50;9.67;;;2.57;;
8337;SDS011;4206;48.634;9.516;2023-02-01T16:33:17;7.27;;;2.40;;
8337;SDS011;4206;48.634;9.516;2023-02-01T16:35:46;11.83;;;2.83;;
8337;SDS011;4206;48.634;9.516;2023-02-01T16:38:14;15.93;;;4.20;;
8337;SDS011;4206;48.634;9.516;2023-02-01T16:40:43;9.77;;;3.60;;
8337;SDS011;4206;48.634;9.516;2023-02-01T16:43:12;13.47;;;5.70;;
8337;SDS011;4206;48.634;9.516;2023-02-01T16:45:40;13.87;;;3.90;;
8337;SDS011;4206;48.634;9.516;2023-02-01T16:48:10;11.63;;;4.70;;
8337;SDS011;4206;48.634;9.516;2023-02-01T16:50:57;13.53;;;3.60;;
8337;SDS011;4206;48.634;9.516;2023-02-01T16:53:27;11.87;;;2.57;;
8337;SDS011;4206;48.634;9.516;2023-02-01T16:55:54;4.93;;;2.50;;
8337;SDS011;4206;48.634;9.516;2023-02-01T16:58:22;8.00;;;2.57;;
8337;SDS011;4206;48.634;9.516;2023-02-01T17:00:48;8.93;;;2.90;;
8337;SDS011;4206;48.634;9.516;2023-02-01T17:03:16;5.77;;;2.20;;
8337;SDS011;4206;48.634;9.516;2023-02-01T17:05:46;13.07;;;2.10;;
8337;SDS011;4206;48.634;9.516;2023-02-01T17:08:16;6.27;;;2.27;;
8337;SDS011;4206;48.634;9.516;2023-02-01T17:10:47;7.40;;;2.20;;
8337;SDS011;4206;48.634;9.516;2023-02-01T17:13:13;9.63;;;1.90;;
8337;SDS011;4206;48.634;9.516;2023-02-01T17:15:43;9.97;;;1.97;;
8337;SDS011;4206;48.634;9.516;2023-02-01T17:18:17;6.17;;;2.57;;
8337;SDS011;4206;48.634;9.516;2023-02-01T17:20:43;8.13;;;2.50;;
8337;SDS011;4206;48.634;9.516;2023-02-01T17:23:12;11.83;;;2.53;;
8337;SDS011;4206;48.634;9.516;2023-02-01T17:25:39;3.00;;;1.63;;
8337;SDS011;4206;48.634;9.516;2023-02-01T17:28:06;7.00;;;2.00;;
8337;SDS011;4206;48.634;9.516;2023-02-01T17:30:32;9.10;;;2.00;;
8337;SDS011;4206;48.634;9.516;2023-02-01T17:32:57;6.63;;;1.60;;
8337;SDS011;4206;48.634;9.516;2023-02-01T17:35:24;7.03;;;1.60;;
8337;SDS011;4206;48.634;9.516;2023-02-01T17:37:51;7.23;;;2.10;;
8337;SDS011;4206;48.634;9.516;2023-02-01T17:40:17;11.77;;;2.60;;
8337;SDS011;4206;48.634;9.516;2023-02-01T17:42:43;5.30;;;1.97;;
8337;SDS011;4206;48.634;9.516;2023-02-01T17:47:51;13.10;;;2.43;;
8337;SDS011;4206;48.634;9.516;2023-02-01T17:50:17;9.17;;;1.70;;
8337;SDS011;4206;48.634;9.516;2023-02-01T17:52:43;8.80;;;2.40;;
8337;SDS011;4206;48.634;9.516;2023-02-01T17:55:14;8.00;;;2.40;;
8337;SDS011;4206;48.634;9.516;2023-02-01T17:57:43;16.13;;;2.77;;
8337;SDS011;4206;48.634;9.516;2023-02-01T18:00:09;11.03;;;2.00;;
8337;SDS011;4206;48.634;9.516;2023-02-01T18:02:37;8.40;;;2.67;;
8337;SDS011;4206;48.634;9.516;2023-02-01T18:05:11;8.93;;;2.30;;
8337;SDS011;4206;48.634;9.516;2023-02-01T18:07:43;6.53;;;2.50;;
8337;SDS011;4206;48.634;9.516;2023-02-01T18:10:09;9.57;;;2.00;;
8337;SDS011;4206;48.634;9.516;2023-02-01T18:12:35;11.67;;;2.47;;
8337;SDS011;4206;48.634;9.516;2023-02-01T18:15:01;8.87;;;1.83;;
8337;SDS011;4206;48.634;9.516;2023-02-01T18:17:35;6.77;;;2.17;;
8337;SDS011;4206;48.634;9.516;2023-02-01T18:20:00;8.50;;;2.80;;
8337;SDS011;4206;48.634;9.516;2023-02-01T18:22:26;7.37;;;2.17;;